createdAt,value
2023-03-13T00:03:55.543Z,12.83
2023-03-13T00:08:50.687Z,12.00
2023-03-13T00:13:44.578Z,12.77
2023-03-13T00:18:38.156Z,11.13
2023-03-13T00:23:32.594Z,11.17
2023-03-13T00:28:32.337Z,14.40
2023-03-13T00:33:25.881Z,14.63
2023-03-13T00:38:19.354Z,13.90
2023-03-13T00:43:12.964Z,16.10
2023-03-13T00:48:09.997Z,13.70
2023-03-13T00:53:03.518Z,19.67
2023-03-13T00:57:56.981Z,14.47
2023-03-13T01:02:50.974Z,15.27
2023-03-13T01:07:45.960Z,13.10
2023-03-13T01:12:39.297Z,13.70
2023-03-13T01:17:32.687Z,12.70
2023-03-13T01:22:27.672Z,12.30
2023-03-13T01:27:22.576Z,13.40
2023-03-13T01:32:16.056Z,15.03
2023-03-13T01:37:09.362Z,15.07
2023-03-13T01:42:04.342Z,14.07
2023-03-13T01:46:59.383Z,12.20
2023-03-13T01:51:56.617Z,14.03
2023-03-13T01:56:52.952Z,12.63
2023-03-13T02:01:48.738Z,14.10
2023-03-13T02:06:46.580Z,12.80
2023-03-13T02:11:49.281Z,13.03
2023-03-13T02:16:47.848Z,12.13
2023-03-13T02:21:47.544Z,13.43
2023-03-13T02:26:42.259Z,13.00
2023-03-13T02:31:36.228Z,14.93
2023-03-13T02:36:32.345Z,18.13
2023-03-13T02:41:26.957Z,18.60
2023-03-13T02:46:23.953Z,17.77
2023-03-13T02:51:26.859Z,15.67
2023-03-13T02:56:25.547Z,15.90
2023-03-13T03:01:20.001Z,14.83
2023-03-13T03:06:15.143Z,14.07
2023-03-13T03:11:09.563Z,14.17
2023-03-13T03:16:08.144Z,14.47
2023-03-13T03:21:01.527Z,14.67
2023-03-13T03:25:56.446Z,16.27
2023-03-13T03:30:49.731Z,16.53
2023-03-13T03:35:43.098Z,18.17
2023-03-13T03:40:36.708Z,21.23
2023-03-13T03:45:31.367Z,18.80
2023-03-13T03:50:24.934Z,16.43
2023-03-13T03:55:24.034Z,12.73
2023-03-13T04:00:19.281Z,13.30
2023-03-13T04:10:13.591Z,11.37
2023-03-13T04:15:13.842Z,11.03
2023-03-13T04:20:08.561Z,11.03
2023-03-13T04:25:03.513Z,10.83
2023-03-13T04:29:58.773Z,11.17
2023-03-13T04:34:52.209Z,10.73
2023-03-13T04:40:09.373Z,10.87
2023-03-13T04:45:13.131Z,12.83
2023-03-13T04:50:47.192Z,12.60
2023-03-13T04:55:56.181Z,14.20
2023-03-13T05:01:22.177Z,12.50
2023-03-13T05:06:37.749Z,15.90
2023-03-13T05:11:44.419Z,13.93
2023-03-13T05:16:56.874Z,13.80
2023-03-13T05:22:13.227Z,13.30
2023-03-13T05:27:39.232Z,12.47
2023-03-13T05:32:51.994Z,14.83
2023-03-13T05:38:04.593Z,19.70
2023-03-13T05:43:34.504Z,17.97
2023-03-13T05:48:46.606Z,15.63
2023-03-13T05:53:58.577Z,12.50
2023-03-13T05:58:53.515Z,14.40
2023-03-13T06:04:25.512Z,13.70
2023-03-13T06:09:18.951Z,15.20
2023-03-13T06:14:16.988Z,14.70
2023-03-13T06:19:20.731Z,13.70
2023-03-13T06:24:13.946Z,13.20
2023-03-13T06:29:07.139Z,12.00
2023-03-13T06:34:01.798Z,13.23
2023-03-13T06:38:55.011Z,13.13
2023-03-13T06:43:48.155Z,11.90
2023-03-13T06:48:41.420Z,12.03
2023-03-13T06:53:36.054Z,13.73
2023-03-13T06:58:32.880Z,14.27
2023-03-13T07:03:26.471Z,12.50
2023-03-13T07:08:19.682Z,12.10
2023-03-13T07:13:14.368Z,13.40
2023-03-13T07:18:07.677Z,11.47
2023-03-13T07:23:00.847Z,10.87
2023-03-13T07:27:54.219Z,12.03
2023-03-13T07:32:49.005Z,11.07
2023-03-13T07:37:53.663Z,11.10
2023-03-13T07:42:55.777Z,12.90
2023-03-13T07:47:50.448Z,10.07
2023-03-13T07:52:43.729Z,10.70
2023-03-13T07:57:36.972Z,10.30
2023-03-13T08:02:30.369Z,10.17
2023-03-13T08:07:25.679Z,11.30
2023-03-13T08:12:18.962Z,10.77
2023-03-13T08:17:12.546Z,10.17
2023-03-13T08:22:07.867Z,10.40
2023-03-13T08:27:05.018Z,10.73
2023-03-13T08:32:01.198Z,10.85
2023-03-13T08:36:54.461Z,11.65
2023-03-13T08:41:48.325Z,11.45
2023-03-13T08:46:44.090Z,13.02
2023-03-13T08:51:37.664Z,11.38
2023-03-13T08:56:38.634Z,10.45
2023-03-13T09:01:35.604Z,9.32
2023-03-13T09:06:33.582Z,9.90
2023-03-13T09:11:27.383Z,9.82
2023-03-13T09:16:24.560Z,9.60
2023-03-13T09:21:23.384Z,8.68
2023-03-13T09:26:22.615Z,10.02
2023-03-13T09:31:18.708Z,7.90
2023-03-13T09:36:13.142Z,8.13
2023-03-13T09:41:21.826Z,8.60
2023-03-13T09:46:27.107Z,7.32
2023-03-13T09:51:29.287Z,9.15
2023-03-13T09:56:26.505Z,7.03
2023-03-13T10:01:24.007Z,6.93
2023-03-13T10:06:21.255Z,6.72
2023-03-13T10:11:27.042Z,6.60
2023-03-13T10:16:28.215Z,6.95
2023-03-13T10:21:24.483Z,7.68
2023-03-13T10:26:22.810Z,7.35
2023-03-13T10:31:26.079Z,7.45
2023-03-13T10:36:21.069Z,7.10
2023-03-13T10:41:32.457Z,5.75
2023-03-13T10:46:32.417Z,6.72
2023-03-13T10:51:34.813Z,6.07
2023-03-13T10:56:31.711Z,6.00
2023-03-13T11:01:32.672Z,5.78
2023-03-13T11:06:31.359Z,5.80
2023-03-13T11:11:27.772Z,5.72
2023-03-13T11:16:23.663Z,5.38
2023-03-13T11:21:25.502Z,5.53
2023-03-13T11:26:28.193Z,7.50
2023-03-13T11:31:26.040Z,5.10
2023-03-13T11:36:28.900Z,5.22
2023-03-13T11:41:38.675Z,3.83
2023-03-13T11:46:56.019Z,3.40
2023-03-13T11:52:02.074Z,3.55
2023-03-13T11:56:58.520Z,4.20
2023-03-13T12:01:57.174Z,4.15
2023-03-13T12:06:58.128Z,3.75
2023-03-13T12:12:03.479Z,4.65
2023-03-13T12:17:01.468Z,4.72
2023-03-13T12:21:59.638Z,4.30
2023-03-13T12:26:57.285Z,3.95
2023-03-13T12:31:54.826Z,4.00
2023-03-13T12:36:52.847Z,4.63
2023-03-13T12:41:55.023Z,3.90
2023-03-13T12:46:56.679Z,3.90
2023-03-13T12:52:07.959Z,4.75
2023-03-13T12:57:14.521Z,4.30
2023-03-13T13:02:17.849Z,4.25
2023-03-13T13:07:26.935Z,4.43
2023-03-13T13:12:26.571Z,4.25
2023-03-13T13:17:27.721Z,4.63
2023-03-13T13:22:52.464Z,3.80
2023-03-13T13:27:54.148Z,4.07
2023-03-13T13:32:48.921Z,4.90
2023-03-13T13:37:42.411Z,4.70
2023-03-13T13:42:48.180Z,3.85
2023-03-13T13:47:45.503Z,3.85
2023-03-13T13:52:39.643Z,4.38
2023-03-13T13:57:36.125Z,4.05
2023-03-13T14:02:35.509Z,3.90
2023-03-13T14:07:48.383Z,3.83
2023-03-13T14:12:41.730Z,3.78
2023-03-13T14:17:40.846Z,3.60
2023-03-13T14:22:51.052Z,4.13
2023-03-13T14:27:45.393Z,3.88
2023-03-13T14:32:42.172Z,4.50
2023-03-13T14:37:36.988Z,4.90
2023-03-13T14:42:40.336Z,3.75
2023-03-13T14:47:36.087Z,4.53
2023-03-13T14:52:31.521Z,5.88
2023-03-13T14:57:27.623Z,5.15
2023-03-13T15:02:25.181Z,4.72
2023-03-13T15:07:20.798Z,4.07
2023-03-13T15:12:16.796Z,4.40
2023-03-13T15:17:22.177Z,4.40
2023-03-13T15:22:18.158Z,4.43
2023-03-13T15:27:18.941Z,3.72
2023-03-13T15:32:27.502Z,3.78
2023-03-13T15:37:35.295Z,3.85
2023-03-13T15:42:28.567Z,4.93
2023-03-13T15:47:23.339Z,5.05
2023-03-13T15:52:19.216Z,6.15
2023-03-13T15:57:15.928Z,12.93
2023-03-13T16:02:15.600Z,12.88
2023-03-13T16:07:11.581Z,9.57
2023-03-13T16:12:05.257Z,6.95
2023-03-13T16:17:00.601Z,6.78
2023-03-13T16:21:56.565Z,8.82
2023-03-13T16:26:52.723Z,9.65
2023-03-13T16:31:46.456Z,12.27
2023-03-13T16:36:42.710Z,13.95
2023-03-13T16:41:40.948Z,12.00
2023-03-13T16:46:38.075Z,10.18
2023-03-13T16:51:37.392Z,12.00
2023-03-13T16:56:34.897Z,10.45
2023-03-13T17:01:30.157Z,9.77
2023-03-13T17:06:25.297Z,8.93
2023-03-13T17:11:21.449Z,9.73
2023-03-13T17:16:18.858Z,15.77
2023-03-13T17:21:17.903Z,19.70
2023-03-13T17:26:24.088Z,18.70
2023-03-13T17:31:21.240Z,16.52
2023-03-13T17:36:20.421Z,17.15
2023-03-13T17:41:15.965Z,17.37
2023-03-13T17:46:20.265Z,18.08
2023-03-13T17:51:19.207Z,28.73
2023-03-13T17:56:29.555Z,35.83
2023-03-13T18:01:25.844Z,26.33
2023-03-13T18:06:25.200Z,23.80
2023-03-13T18:11:19.468Z,23.58
2023-03-13T18:16:25.457Z,24.00
2023-03-13T18:21:19.028Z,25.95
2023-03-13T18:26:24.024Z,24.05
2023-03-13T18:31:17.572Z,19.55
2023-03-13T18:36:20.128Z,19.48
2023-03-13T18:41:15.530Z,18.67
2023-03-13T18:46:15.886Z,18.02
2023-03-13T18:51:12.546Z,15.18
2023-03-13T18:56:17.198Z,17.88
2023-03-13T19:01:13.957Z,18.85
2023-03-13T19:06:21.896Z,21.30
2023-03-13T19:11:17.391Z,15.35
2023-03-13T19:16:16.139Z,14.50
2023-03-13T19:21:17.470Z,28.08
2023-03-13T19:26:16.984Z,44.88
2023-03-13T19:31:10.269Z,61.70
2023-03-13T19:36:03.636Z,44.00
2023-03-13T19:41:04.873Z,38.40
2023-03-13T19:46:02.248Z,10.10
2023-03-13T19:50:56.946Z,11.00
2023-03-13T19:55:58.648Z,10.50
2023-03-13T20:00:52.102Z,9.77
2023-03-13T20:05:48.992Z,9.27
2023-03-13T20:10:43.729Z,6.70
2023-03-13T20:15:37.150Z,7.50
2023-03-13T20:20:30.655Z,5.10
2023-03-13T20:25:25.415Z,5.75
2023-03-13T20:30:19.173Z,4.85
2023-03-13T20:35:14.235Z,5.68
2023-03-13T20:40:09.106Z,5.82
2023-03-13T20:45:03.908Z,6.32
2023-03-13T20:49:57.708Z,5.53
2023-03-13T20:54:54.184Z,5.20
2023-03-13T20:59:47.510Z,4.63
2023-03-13T21:04:42.403Z,4.60
2023-03-13T21:09:37.667Z,4.37
2023-03-13T21:14:31.355Z,3.90
2023-03-13T21:19:27.728Z,3.93
2023-03-13T21:24:22.438Z,4.50
2023-03-13T21:29:16.010Z,3.57
2023-03-13T21:34:10.793Z,4.00
2023-03-13T21:39:09.416Z,3.50
2023-03-13T21:44:04.841Z,3.50
2023-03-13T21:48:58.436Z,3.67
2023-03-13T21:53:53.643Z,3.50
2023-03-13T21:58:47.227Z,3.73
2023-03-13T22:03:42.415Z,3.37
2023-03-13T22:08:36.098Z,3.80
2023-03-13T22:13:29.370Z,3.30
2023-03-13T22:18:22.824Z,3.90
2023-03-13T22:23:18.019Z,3.87
2023-03-13T22:28:12.155Z,3.57
2023-03-13T22:33:12.548Z,3.30
2023-03-13T22:38:06.466Z,3.75
2023-03-13T22:43:01.352Z,3.70
2023-03-13T22:47:54.819Z,3.30
2023-03-13T22:52:48.121Z,3.47
2023-03-13T22:57:41.987Z,3.80
2023-03-13T23:02:36.742Z,3.60
2023-03-13T23:07:32.447Z,3.93
2023-03-13T23:12:26.127Z,3.63
2023-03-13T23:17:19.486Z,3.40
2023-03-13T23:22:17.902Z,3.73
2023-03-13T23:27:13.908Z,3.93
2023-03-13T23:32:07.698Z,4.13
2023-03-13T23:37:00.986Z,3.93
2023-03-13T23:41:56.320Z,3.23
2023-03-13T23:46:52.813Z,3.73
2023-03-13T23:51:46.760Z,3.47
2023-03-13T23:56:42.627Z,4.00
